createdAt,value
2022-08-19T00:02:04.599Z,99.90
2022-08-19T00:04:37.445Z,99.90
2022-08-19T00:07:07.276Z,99.90
2022-08-19T00:09:34.476Z,99.90
2022-08-19T00:12:02.375Z,99.90
2022-08-19T00:14:32.226Z,99.90
2022-08-19T00:16:59.734Z,99.90
2022-08-19T00:19:26.937Z,99.90
2022-08-19T00:21:56.166Z,99.90
2022-08-19T00:24:23.613Z,99.90
2022-08-19T00:26:51.489Z,99.90
2022-08-19T00:29:21.511Z,99.90
2022-08-19T00:31:48.499Z,99.90
2022-08-19T00:34:17.975Z,99.90
2022-08-19T00:36:45.328Z,99.90
2022-08-19T00:39:13.597Z,99.90
2022-08-19T00:41:42.249Z,99.90
2022-08-19T00:44:13.650Z,99.90
2022-08-19T00:46:57.926Z,99.90
2022-08-19T00:49:53.723Z,99.90
2022-08-19T00:52:49.196Z,99.90
2022-08-19T00:55:24.588Z,99.90
2022-08-19T00:58:01.419Z,99.90
2022-08-19T01:00:30.497Z,99.90
2022-08-19T01:02:57.933Z,99.90
2022-08-19T01:05:29.608Z,99.90
2022-08-19T01:08:00.219Z,99.90
2022-08-19T01:10:34.811Z,99.90
2022-08-19T01:13:05.037Z,99.90
2022-08-19T01:15:36.587Z,99.90
2022-08-19T01:18:09.332Z,99.90
2022-08-19T01:20:36.691Z,99.90
2022-08-19T01:23:04.334Z,99.90
2022-08-19T01:25:42.181Z,99.90
2022-08-19T01:28:10.896Z,99.90
2022-08-19T01:30:38.460Z,99.90
2022-08-19T01:33:06.568Z,99.90
2022-08-19T01:35:34.110Z,99.90
2022-08-19T01:38:08.606Z,99.90
2022-08-19T01:40:40.583Z,99.90
2022-08-19T01:43:07.771Z,99.90
2022-08-19T01:45:36.183Z,99.90
2022-08-19T01:48:04.245Z,99.90
2022-08-19T01:50:34.489Z,99.90
2022-08-19T01:53:06.625Z,99.90
2022-08-19T01:55:40.507Z,99.90
2022-08-19T01:58:16.043Z,99.90
2022-08-19T02:00:43.884Z,99.90
2022-08-19T02:03:12.439Z,99.90
2022-08-19T02:05:41.892Z,99.90
2022-08-19T02:08:10.381Z,99.90
2022-08-19T02:10:42.342Z,99.90
2022-08-19T02:13:10.068Z,99.90
2022-08-19T02:15:38.412Z,99.90
2022-08-19T02:18:06.454Z,99.90
2022-08-19T02:20:33.343Z,99.90
2022-08-19T02:23:01.872Z,99.90
2022-08-19T02:25:29.174Z,99.90
2022-08-19T02:27:56.150Z,99.90
2022-08-19T02:30:23.419Z,99.90
2022-08-19T02:32:50.295Z,99.90
2022-08-19T02:35:17.823Z,99.90
2022-08-19T02:38:04.241Z,99.90
2022-08-19T02:40:35.436Z,99.90
2022-08-19T02:43:08.653Z,99.90
2022-08-19T02:45:41.731Z,99.90
2022-08-19T02:48:17.857Z,99.90
2022-08-19T02:50:56.030Z,99.90
2022-08-19T02:53:25.501Z,99.90
2022-08-19T02:55:52.946Z,99.90
2022-08-19T02:58:22.140Z,99.90
2022-08-19T03:00:54.375Z,99.90
2022-08-19T03:03:21.615Z,99.90
2022-08-19T03:05:56.524Z,99.90
2022-08-19T03:08:26.622Z,99.90
2022-08-19T03:10:54.248Z,99.90
2022-08-19T03:13:21.789Z,99.90
2022-08-19T03:15:49.599Z,99.90
2022-08-19T03:18:18.282Z,99.90
2022-08-19T03:20:55.435Z,99.90
2022-08-19T03:23:23.872Z,99.90
2022-08-19T03:26:03.298Z,99.90
2022-08-19T03:28:40.039Z,99.90
2022-08-19T03:31:42.082Z,99.90
2022-08-19T03:33:59.585Z,99.90
2022-08-19T03:36:29.676Z,99.90
2022-08-19T03:39:00.339Z,99.90
2022-08-19T03:41:45.362Z,99.90
2022-08-19T03:44:16.859Z,99.90
2022-08-19T03:46:52.258Z,99.90
2022-08-19T03:49:21.086Z,99.90
2022-08-19T03:51:51.188Z,99.90
2022-08-19T03:54:25.076Z,99.90
2022-08-19T03:56:54.540Z,99.90
2022-08-19T03:59:33.940Z,99.90
2022-08-19T04:02:04.344Z,99.90
2022-08-19T04:04:31.891Z,99.90
2022-08-19T04:06:59.520Z,99.90
2022-08-19T04:09:26.913Z,99.90
2022-08-19T04:11:58.395Z,99.90
2022-08-19T04:14:31.101Z,99.90
2022-08-19T04:16:59.972Z,99.90
2022-08-19T04:19:27.779Z,99.90
2022-08-19T04:21:55.996Z,99.90
2022-08-19T04:24:26.502Z,99.90
2022-08-19T04:26:57.016Z,99.90
2022-08-19T04:29:26.523Z,99.90
2022-08-19T04:31:56.486Z,99.90
2022-08-19T04:34:26.389Z,99.90
2022-08-19T04:36:56.154Z,99.90
2022-08-19T04:39:46.667Z,99.90
2022-08-19T04:42:32.905Z,99.90
2022-08-19T04:45:00.279Z,99.90
2022-08-19T04:47:47.511Z,99.90
2022-08-19T04:50:15.345Z,99.90
2022-08-19T04:52:43.801Z,99.90
2022-08-19T04:55:13.551Z,99.90
2022-08-19T04:57:41.118Z,99.90
2022-08-19T05:00:10.184Z,99.90
2022-08-19T05:02:38.996Z,99.90
2022-08-19T05:05:07.518Z,99.90
2022-08-19T05:07:35.321Z,99.90
2022-08-19T05:10:03.588Z,99.90
2022-08-19T05:12:30.550Z,99.90
2022-08-19T05:14:59.444Z,99.90
2022-08-19T05:17:30.993Z,99.90
2022-08-19T05:20:19.137Z,99.90
2022-08-19T05:22:48.587Z,99.90
2022-08-19T05:25:21.771Z,99.90
2022-08-19T05:27:49.658Z,99.90
2022-08-19T05:30:18.142Z,99.90
2022-08-19T05:32:45.794Z,99.90
2022-08-19T05:35:13.181Z,99.90
2022-08-19T05:37:46.546Z,99.90
2022-08-19T05:40:13.558Z,99.90
2022-08-19T05:42:40.558Z,99.90
2022-08-19T05:45:08.808Z,99.90
2022-08-19T05:47:36.536Z,99.90
2022-08-19T05:50:09.646Z,99.90
2022-08-19T05:52:39.312Z,99.90
2022-08-19T05:55:11.446Z,99.90
2022-08-19T06:00:11.868Z,99.90
2022-08-19T06:02:39.033Z,99.90
2022-08-19T06:05:08.206Z,99.90
2022-08-19T06:10:11.302Z,99.90
2022-08-19T06:12:38.754Z,99.90
2022-08-19T06:15:11.885Z,99.90
2022-08-19T06:17:39.351Z,99.90
2022-08-19T06:20:10.914Z,99.90
2022-08-19T06:22:44.133Z,99.90
2022-08-19T06:25:12.963Z,99.90
2022-08-19T06:27:58.528Z,99.90
2022-08-19T06:30:27.989Z,99.90
2022-08-19T06:32:55.174Z,99.90
2022-08-19T06:35:22.285Z,99.90
2022-08-19T06:37:49.180Z,99.90
2022-08-19T06:40:16.254Z,99.90
2022-08-19T06:42:51.659Z,99.90
2022-08-19T06:45:25.144Z,99.90
2022-08-19T06:48:01.732Z,99.90
2022-08-19T06:50:28.606Z,99.90
2022-08-19T06:52:55.743Z,99.90
2022-08-19T06:55:22.805Z,99.90
2022-08-19T06:57:54.545Z,99.90
2022-08-19T07:00:21.875Z,99.90
2022-08-19T07:02:54.291Z,99.90
2022-08-19T07:05:26.045Z,99.90
2022-08-19T07:07:52.981Z,99.90
2022-08-19T07:10:20.219Z,99.90
2022-08-19T07:12:47.629Z,99.90
2022-08-19T07:15:14.659Z,99.90
2022-08-19T07:17:42.240Z,99.90
2022-08-19T07:20:10.885Z,99.90
2022-08-19T07:22:41.372Z,99.90
2022-08-19T07:25:10.985Z,99.90
2022-08-19T07:27:39.681Z,99.90
2022-08-19T07:30:11.724Z,99.90
2022-08-19T07:32:40.429Z,99.90
2022-08-19T07:35:08.451Z,99.90
2022-08-19T07:37:36.535Z,99.90
2022-08-19T07:40:07.439Z,99.90
2022-08-19T07:42:34.464Z,99.90
2022-08-19T07:45:01.506Z,99.90
2022-08-19T07:47:49.207Z,99.90
2022-08-19T07:50:16.789Z,99.90
2022-08-19T07:52:45.755Z,99.90
2022-08-19T07:55:41.132Z,99.90
2022-08-19T07:58:06.274Z,99.90
2022-08-19T08:00:36.994Z,99.90
2022-08-19T08:03:04.229Z,99.90
2022-08-19T08:06:06.481Z,99.90
2022-08-19T08:08:52.820Z,99.90
2022-08-19T08:11:22.106Z,99.90
2022-08-19T08:14:00.415Z,99.90
2022-08-19T08:16:34.718Z,99.90
2022-08-19T08:19:01.844Z,99.90
2022-08-19T08:21:28.958Z,99.90
2022-08-19T08:23:56.607Z,99.90
2022-08-19T08:26:24.689Z,99.90
2022-08-19T08:28:52.863Z,99.90
2022-08-19T08:31:20.325Z,99.90
2022-08-19T08:33:48.550Z,99.90
2022-08-19T08:36:17.142Z,99.90
2022-08-19T08:38:48.095Z,99.90
2022-08-19T08:41:36.587Z,99.90
2022-08-19T08:44:05.614Z,99.90
2022-08-19T08:46:42.273Z,99.90
2022-08-19T08:49:25.397Z,99.90
2022-08-19T08:52:17.242Z,99.90
2022-08-19T08:54:54.880Z,99.90
2022-08-19T08:57:40.777Z,99.90
2022-08-19T09:00:20.895Z,99.90
2022-08-19T09:02:50.355Z,99.90
2022-08-19T09:05:22.257Z,99.90
2022-08-19T09:08:09.776Z,99.90
2022-08-19T09:10:55.174Z,99.90
2022-08-19T09:13:37.467Z,99.90
2022-08-19T09:16:28.277Z,99.90
2022-08-19T09:18:59.893Z,99.90
2022-08-19T09:21:33.124Z,99.90
2022-08-19T09:24:03.487Z,99.90
2022-08-19T09:26:48.235Z,99.90
2022-08-19T09:29:22.477Z,99.90
2022-08-19T09:31:50.901Z,99.90
2022-08-19T09:34:21.091Z,99.90
2022-08-19T09:36:53.994Z,99.90
2022-08-19T09:39:22.489Z,99.90
2022-08-19T09:41:50.879Z,99.90
2022-08-19T09:44:19.273Z,99.90
2022-08-19T09:46:48.237Z,99.90
2022-08-19T09:49:22.574Z,99.90
2022-08-19T09:51:54.772Z,99.90
2022-08-19T09:54:25.014Z,99.90
2022-08-19T09:56:54.076Z,99.90
2022-08-19T09:59:21.422Z,99.90
2022-08-19T10:01:48.350Z,99.90
2022-08-19T10:04:20.024Z,99.90
2022-08-19T10:06:48.718Z,99.90
2022-08-19T10:09:33.640Z,99.90
2022-08-19T10:12:04.026Z,99.90
2022-08-19T10:14:32.071Z,99.90
2022-08-19T10:17:01.345Z,99.90
2022-08-19T10:19:55.208Z,99.90
2022-08-19T10:22:23.732Z,99.90
2022-08-19T10:24:53.512Z,99.90
2022-08-19T10:27:20.762Z,99.90
2022-08-19T10:29:48.772Z,99.20
2022-08-19T10:32:16.545Z,99.20
2022-08-19T10:34:48.925Z,99.10
2022-08-19T10:37:22.843Z,98.50
2022-08-19T10:39:51.869Z,97.30
2022-08-19T10:42:19.627Z,97.60
2022-08-19T10:44:47.788Z,97.00
2022-08-19T10:47:17.295Z,96.90
2022-08-19T10:50:11.708Z,96.50
2022-08-19T10:52:49.513Z,96.00
2022-08-19T10:55:44.260Z,95.10
2022-08-19T10:58:14.826Z,94.20
2022-08-19T11:00:44.290Z,94.30
2022-08-19T11:03:11.591Z,94.30
2022-08-19T11:05:40.380Z,93.40
2022-08-19T11:08:22.902Z,93.30
2022-08-19T11:10:56.236Z,93.20
2022-08-19T11:13:24.230Z,92.40
2022-08-19T11:16:14.823Z,92.30
2022-08-19T11:18:46.548Z,92.80
2022-08-19T11:21:20.297Z,92.80
2022-08-19T11:23:50.155Z,93.10
2022-08-19T11:26:18.957Z,92.30
2022-08-19T11:28:46.717Z,91.70
2022-08-19T11:31:21.386Z,92.40
2022-08-19T11:33:54.892Z,92.10
2022-08-19T11:36:22.775Z,91.70
2022-08-19T11:38:50.924Z,91.70
2022-08-19T11:41:20.945Z,90.50
2022-08-19T11:43:48.298Z,90.80
2022-08-19T11:46:17.337Z,91.40
2022-08-19T11:48:45.172Z,91.40
2022-08-19T11:51:16.841Z,91.20
2022-08-19T11:53:43.936Z,90.70
2022-08-19T11:56:11.149Z,91.30
2022-08-19T11:58:42.801Z,90.50
2022-08-19T12:01:16.466Z,90.50
2022-08-19T12:03:49.031Z,90.30
2022-08-19T12:06:29.472Z,90.20
2022-08-19T12:08:58.488Z,89.00
2022-08-19T12:11:26.297Z,89.60
2022-08-19T12:13:54.563Z,88.10
2022-08-19T12:16:29.610Z,87.30
2022-08-19T12:18:58.879Z,88.40
2022-08-19T12:21:31.302Z,88.30
2022-08-19T12:24:00.679Z,90.00
2022-08-19T12:26:29.953Z,90.10
2022-08-19T12:28:56.836Z,91.00
2022-08-19T12:31:23.719Z,90.50
2022-08-19T12:33:50.621Z,90.10
2022-08-19T12:36:18.705Z,90.00
2022-08-19T12:38:46.450Z,90.00
2022-08-19T12:41:16.324Z,90.00
2022-08-19T12:43:43.402Z,88.00
2022-08-19T12:46:11.606Z,86.60
2022-08-19T12:48:42.540Z,87.50
2022-08-19T12:51:20.501Z,87.20
2022-08-19T12:53:48.466Z,86.70
2022-08-19T12:56:16.028Z,87.20
2022-08-19T12:58:49.075Z,88.80
2022-08-19T13:01:22.639Z,86.70
2022-08-19T13:03:53.086Z,86.50
2022-08-19T13:06:20.261Z,86.60
2022-08-19T13:08:47.574Z,87.40
2022-08-19T13:11:21.331Z,86.80
2022-08-19T13:13:51.822Z,86.40
2022-08-19T13:16:21.170Z,85.40
2022-08-19T13:18:48.550Z,85.80
2022-08-19T13:21:15.613Z,86.00
2022-08-19T13:23:43.233Z,85.30
2022-08-19T13:26:12.776Z,85.90
2022-08-19T13:28:59.833Z,84.50
2022-08-19T13:31:49.537Z,84.20
2022-08-19T13:36:46.284Z,81.40
2022-08-19T13:39:13.627Z,82.10
2022-08-19T13:41:49.667Z,81.60
2022-08-19T13:44:19.215Z,78.80
2022-08-19T13:46:49.583Z,79.30
2022-08-19T13:49:21.536Z,75.90
2022-08-19T13:51:48.779Z,77.00
2022-08-19T13:54:15.799Z,77.20
2022-08-19T13:56:45.225Z,77.80
2022-08-19T13:59:13.076Z,77.40
2022-08-19T14:01:41.355Z,78.90
2022-08-19T14:04:08.732Z,74.10
2022-08-19T14:06:36.336Z,75.50
2022-08-19T14:09:03.588Z,76.10
2022-08-19T14:11:30.958Z,77.70
2022-08-19T14:13:58.197Z,75.40
2022-08-19T14:16:25.548Z,74.30
2022-08-19T14:18:52.523Z,72.30
2022-08-19T14:21:24.581Z,71.70
2022-08-19T14:23:52.137Z,71.10
2022-08-19T14:26:20.596Z,70.10
2022-08-19T14:28:47.880Z,70.30
2022-08-19T14:31:19.953Z,69.00
2022-08-19T14:33:48.611Z,70.20
2022-08-19T14:36:16.090Z,72.80
2022-08-19T14:38:43.781Z,73.70
2022-08-19T14:41:21.698Z,74.50
2022-08-19T14:43:51.454Z,74.60
2022-08-19T14:46:25.124Z,75.20
2022-08-19T14:48:53.119Z,77.00
2022-08-19T14:51:24.841Z,77.20
2022-08-19T14:53:52.345Z,76.80
2022-08-19T14:56:24.013Z,73.80
2022-08-19T14:58:54.234Z,72.40
2022-08-19T15:01:23.627Z,71.60
2022-08-19T15:03:55.973Z,71.40
2022-08-19T15:06:27.471Z,72.50
2022-08-19T15:08:55.232Z,73.80
2022-08-19T15:11:27.533Z,72.20
2022-08-19T15:13:56.444Z,71.00
2022-08-19T15:16:26.125Z,72.30
2022-08-19T15:18:58.799Z,70.90
2022-08-19T15:21:27.563Z,71.20
2022-08-19T15:23:57.863Z,70.80
2022-08-19T15:26:26.634Z,71.20
2022-08-19T15:28:53.545Z,70.80
2022-08-19T15:31:27.949Z,71.60
2022-08-19T15:33:58.435Z,70.30
2022-08-19T15:36:27.217Z,70.70
2022-08-19T15:38:55.650Z,71.50
2022-08-19T15:41:29.337Z,70.40
2022-08-19T15:44:04.413Z,69.80
2022-08-19T15:46:34.561Z,69.30
2022-08-19T15:49:02.163Z,70.20
2022-08-19T15:51:32.016Z,70.60
2022-08-19T15:54:00.427Z,69.60
2022-08-19T15:56:47.683Z,69.80
2022-08-19T15:59:46.838Z,70.30
2022-08-19T16:02:34.962Z,69.50
2022-08-19T16:05:26.188Z,70.30
2022-08-19T16:07:54.660Z,69.60
2022-08-19T16:10:26.825Z,67.70
2022-08-19T16:12:57.480Z,67.60
2022-08-19T16:15:30.505Z,67.80
2022-08-19T16:17:58.478Z,67.50
2022-08-19T16:20:26.227Z,68.20
2022-08-19T16:22:56.548Z,70.00
2022-08-19T16:25:27.600Z,70.70
2022-08-19T16:28:06.071Z,69.50
2022-08-19T16:30:37.484Z,68.50
2022-08-19T16:33:04.595Z,67.80
2022-08-19T16:35:31.520Z,66.90
2022-08-19T16:37:58.362Z,66.70
2022-08-19T16:40:25.336Z,67.20
2022-08-19T16:42:53.604Z,66.50
2022-08-19T16:45:21.891Z,68.00
2022-08-19T16:47:48.852Z,66.70
2022-08-19T16:50:22.148Z,66.70
2022-08-19T16:52:58.728Z,67.90
2022-08-19T16:55:27.929Z,67.30
2022-08-19T16:57:54.973Z,68.60
2022-08-19T17:00:22.288Z,68.20
2022-08-19T17:02:49.132Z,67.90
2022-08-19T17:05:16.569Z,67.60
2022-08-19T17:07:43.419Z,68.80
2022-08-19T17:10:10.386Z,67.40
2022-08-19T17:12:37.677Z,66.30
2022-08-19T17:15:08.383Z,66.60
2022-08-19T17:17:37.255Z,67.40
2022-08-19T17:20:06.553Z,66.70
2022-08-19T17:22:35.750Z,67.70
2022-08-19T17:25:03.089Z,66.70
2022-08-19T17:27:32.226Z,67.80
2022-08-19T17:30:02.367Z,68.40
2022-08-19T17:32:29.949Z,68.00
2022-08-19T17:34:57.290Z,69.90
2022-08-19T17:37:24.166Z,71.40
2022-08-19T17:39:51.039Z,73.50
2022-08-19T17:42:17.936Z,73.90
2022-08-19T17:44:50.329Z,74.90
2022-08-19T17:47:19.617Z,75.50
2022-08-19T17:49:46.740Z,76.80
2022-08-19T17:52:13.655Z,77.50
2022-08-19T17:54:40.667Z,79.10
2022-08-19T17:57:08.457Z,80.00
2022-08-19T17:59:37.429Z,80.60
2022-08-19T18:02:07.183Z,81.30
2022-08-19T18:04:38.978Z,82.10
2022-08-19T18:07:06.274Z,82.40
2022-08-19T18:09:41.498Z,82.90
2022-08-19T18:12:13.850Z,83.90
2022-08-19T18:14:41.694Z,84.30
2022-08-19T18:17:15.136Z,84.50
2022-08-19T18:19:47.776Z,84.90
2022-08-19T18:22:36.485Z,85.70
2022-08-19T18:25:13.601Z,85.80
2022-08-19T18:27:42.514Z,86.20
2022-08-19T18:30:10.614Z,85.80
2022-08-19T18:32:39.127Z,86.60
2022-08-19T18:35:16.434Z,87.00
2022-08-19T18:37:45.418Z,87.80
2022-08-19T18:40:39.528Z,87.90
2022-08-19T18:46:11.551Z,88.70
2022-08-19T18:51:29.992Z,89.40
2022-08-19T18:53:58.709Z,90.10
2022-08-19T18:56:29.379Z,90.40
2022-08-19T18:58:56.829Z,90.70
2022-08-19T19:01:34.012Z,91.30
2022-08-19T19:04:05.771Z,91.80
2022-08-19T19:06:40.144Z,92.00
2022-08-19T19:09:14.086Z,92.70
2022-08-19T19:11:44.606Z,93.00
2022-08-19T19:14:27.673Z,93.40
2022-08-19T19:17:04.594Z,93.80
2022-08-19T19:22:02.881Z,94.60
2022-08-19T19:24:32.860Z,95.40
2022-08-19T19:27:06.353Z,95.90
2022-08-19T19:29:36.681Z,96.10
2022-08-19T19:32:10.105Z,96.20
2022-08-19T19:34:40.171Z,96.40
2022-08-19T19:37:07.076Z,96.70
2022-08-19T19:39:45.111Z,96.90
2022-08-19T19:42:19.666Z,97.10
2022-08-19T19:44:48.754Z,97.50
2022-08-19T19:47:17.379Z,97.90
2022-08-19T19:50:10.672Z,98.40
2022-08-19T19:52:32.605Z,98.80
2022-08-19T19:54:59.911Z,99.60
2022-08-19T19:57:27.036Z,99.80
2022-08-19T19:59:54.188Z,99.90
2022-08-19T20:02:21.891Z,99.90
2022-08-19T20:04:50.429Z,99.90
2022-08-19T20:07:17.696Z,99.90
2022-08-19T20:09:59.413Z,99.90
2022-08-19T20:12:27.263Z,99.90
2022-08-19T20:14:54.085Z,99.90
2022-08-19T20:17:21.069Z,99.90
2022-08-19T20:19:48.060Z,99.90
2022-08-19T20:22:15.471Z,99.90
2022-08-19T20:24:42.765Z,99.90
2022-08-19T20:27:10.218Z,99.90
2022-08-19T20:29:41.691Z,99.90
2022-08-19T20:32:12.661Z,99.90
2022-08-19T20:34:40.843Z,99.90
2022-08-19T20:37:09.346Z,99.90
2022-08-19T20:39:37.427Z,99.90
2022-08-19T20:42:04.547Z,99.90
2022-08-19T20:44:31.398Z,99.90
2022-08-19T20:47:02.932Z,99.90
2022-08-19T20:49:30.656Z,99.90
2022-08-19T20:51:58.455Z,99.90
2022-08-19T20:54:27.096Z,99.90
2022-08-19T20:56:54.286Z,99.90
2022-08-19T20:59:22.368Z,99.90
2022-08-19T21:01:53.430Z,99.90
2022-08-19T21:04:21.571Z,99.90
2022-08-19T21:06:50.271Z,99.90
2022-08-19T21:09:17.349Z,99.90
2022-08-19T21:11:44.421Z,99.90
2022-08-19T21:14:12.758Z,99.90
2022-08-19T21:16:39.679Z,99.90
2022-08-19T21:19:06.620Z,99.90
2022-08-19T21:21:34.936Z,99.90
2022-08-19T21:24:02.057Z,99.90
2022-08-19T21:26:29.042Z,99.90
2022-08-19T21:28:55.932Z,99.90
2022-08-19T21:31:22.835Z,99.90
2022-08-19T21:33:49.828Z,99.90
2022-08-19T21:36:17.428Z,99.90
2022-08-19T21:38:44.345Z,99.90
2022-08-19T21:41:11.363Z,99.90
2022-08-19T21:43:39.427Z,99.90
2022-08-19T21:46:07.065Z,99.90
2022-08-19T21:48:34.047Z,99.90
2022-08-19T21:51:01.945Z,99.90
2022-08-19T21:53:31.661Z,99.90
2022-08-19T21:56:06.523Z,99.90
2022-08-19T21:58:34.189Z,99.90
2022-08-19T22:01:05.774Z,99.90
2022-08-19T22:03:37.003Z,99.90
2022-08-19T22:06:04.230Z,99.90
2022-08-19T22:08:31.538Z,99.90
2022-08-19T22:11:01.502Z,99.90
2022-08-19T22:13:30.241Z,99.90
2022-08-19T22:15:57.236Z,99.90
2022-08-19T22:18:24.806Z,99.90
2022-08-19T22:20:52.145Z,99.90
2022-08-19T22:23:20.006Z,99.90
2022-08-19T22:25:47.992Z,99.90
2022-08-19T22:28:18.720Z,99.90
2022-08-19T22:30:47.228Z,99.90
2022-08-19T22:33:20.855Z,99.90
2022-08-19T22:35:48.906Z,99.90
2022-08-19T22:38:16.471Z,99.90
2022-08-19T22:40:48.571Z,99.90
2022-08-19T22:43:28.788Z,99.90
2022-08-19T22:45:57.224Z,99.90
2022-08-19T22:48:28.440Z,99.90
2022-08-19T22:51:15.652Z,99.90
2022-08-19T22:53:45.625Z,99.90
2022-08-19T22:56:15.748Z,99.90
2022-08-19T22:58:43.792Z,99.90
2022-08-19T23:01:27.655Z,99.90
2022-08-19T23:03:59.763Z,99.90
2022-08-19T23:06:31.217Z,99.90
2022-08-19T23:09:04.484Z,99.90
2022-08-19T23:11:41.595Z,99.90
2022-08-19T23:14:10.350Z,99.90
2022-08-19T23:16:37.215Z,99.90
2022-08-19T23:19:04.815Z,99.90
2022-08-19T23:21:31.819Z,99.90
2022-08-19T23:23:58.950Z,99.90
2022-08-19T23:26:25.936Z,99.90
2022-08-19T23:29:12.038Z,99.90
2022-08-19T23:31:39.437Z,99.90
2022-08-19T23:34:06.946Z,99.90
2022-08-19T23:36:34.284Z,99.90
2022-08-19T23:39:01.372Z,99.90
2022-08-19T23:41:28.452Z,99.90
2022-08-19T23:43:55.442Z,99.90
2022-08-19T23:46:27.430Z,99.90
2022-08-19T23:48:56.547Z,99.90
2022-08-19T23:51:23.637Z,99.90
2022-08-19T23:53:50.580Z,99.90
2022-08-19T23:56:17.658Z,99.90
2022-08-19T23:58:46.876Z,99.90
